createdAt,value
2023-01-13T00:00:20.613Z,78.33
2023-01-13T00:05:44.569Z,78.67
2023-01-13T00:10:51.437Z,79.15
2023-01-13T00:16:05.249Z,79.50
2023-01-13T00:21:15.609Z,79.54
2023-01-13T00:26:26.842Z,79.51
2023-01-13T00:31:31.522Z,79.67
2023-01-13T00:36:35.407Z,80.04
2023-01-13T00:41:57.978Z,80.58
2023-01-13T00:47:02.246Z,81.45
2023-01-13T00:52:06.345Z,81.93
2023-01-13T00:57:10.338Z,81.99
2023-01-13T01:02:14.182Z,82.13
2023-01-13T01:07:18.181Z,82.17
2023-01-13T01:12:21.937Z,82.24
2023-01-13T01:17:25.832Z,81.88
2023-01-13T01:22:29.610Z,81.82
2023-01-13T01:27:33.348Z,82.00
2023-01-13T01:32:36.938Z,82.10
2023-01-13T01:37:40.664Z,82.19
2023-01-13T01:43:02.727Z,82.38
2023-01-13T01:48:08.488Z,82.54
2023-01-13T01:53:21.772Z,82.82
2023-01-13T01:58:42.624Z,83.17
2023-01-13T02:03:58.278Z,84.33
2023-01-13T02:09:02.203Z,85.28
2023-01-13T02:14:06.093Z,86.13
2023-01-13T02:19:21.833Z,86.39
2023-01-13T02:25:10.615Z,87.17
2023-01-13T02:30:48.322Z,87.65
2023-01-13T02:36:13.050Z,87.88
2023-01-13T02:41:51.417Z,87.91
2023-01-13T02:47:20.608Z,88.11
2023-01-13T02:52:36.617Z,88.45
2023-01-13T02:57:43.360Z,89.02
2023-01-13T03:02:49.289Z,89.13
2023-01-13T03:08:04.420Z,89.10
2023-01-13T03:14:04.679Z,89.07
2023-01-13T03:19:49.040Z,88.88
2023-01-13T03:25:07.809Z,88.82
2023-01-13T03:30:29.871Z,88.79
2023-01-13T03:35:44.475Z,88.82
2023-01-13T03:41:01.677Z,88.86
2023-01-13T03:46:27.275Z,88.76
2023-01-13T03:51:34.386Z,88.75
2023-01-13T03:56:59.909Z,88.76
2023-01-13T04:02:20.077Z,88.76
2023-01-13T04:07:48.422Z,88.82
2023-01-13T04:13:08.344Z,88.86
2023-01-13T04:18:26.504Z,88.90
2023-01-13T04:23:30.314Z,88.86
2023-01-13T04:28:35.411Z,88.75
2023-01-13T04:33:39.091Z,88.65
2023-01-13T04:38:42.906Z,88.71
2023-01-13T04:43:46.481Z,88.71
2023-01-13T04:48:50.227Z,88.67
2023-01-13T04:53:53.866Z,88.77
2023-01-13T04:58:57.459Z,88.75
2023-01-13T05:04:01.175Z,88.70
2023-01-13T05:09:04.963Z,88.68
2023-01-13T05:14:27.801Z,88.61
2023-01-13T05:19:35.384Z,88.61
2023-01-13T05:24:57.736Z,88.53
2023-01-13T05:30:02.070Z,88.49
2023-01-13T05:35:05.961Z,88.44
2023-01-13T05:40:31.888Z,88.46
2023-01-13T05:45:35.629Z,88.53
2023-01-13T05:50:40.264Z,88.53
2023-01-13T05:55:45.797Z,88.57
2023-01-13T06:00:50.490Z,88.59
2023-01-13T06:05:59.128Z,88.67
2023-01-13T06:11:03.453Z,88.69
2023-01-13T06:16:07.671Z,88.71
2023-01-13T06:21:11.678Z,88.67
2023-01-13T06:26:22.448Z,88.60
2023-01-13T06:31:29.102Z,88.75
2023-01-13T06:36:56.537Z,88.83
2023-01-13T06:42:18.932Z,88.89
2023-01-13T06:47:22.830Z,88.85
2023-01-13T06:52:27.902Z,88.82
2023-01-13T06:57:31.441Z,88.77
2023-01-13T07:02:35.128Z,88.75
2023-01-13T07:07:40.306Z,88.78
2023-01-13T07:13:03.024Z,88.83
2023-01-13T07:18:07.192Z,88.88
2023-01-13T07:23:11.083Z,88.92
2023-01-13T07:28:15.060Z,89.04
2023-01-13T07:33:19.271Z,89.00
2023-01-13T07:38:23.071Z,88.99
2023-01-13T07:43:33.118Z,88.86
2023-01-13T07:48:37.188Z,88.83
2023-01-13T07:53:41.502Z,88.93
2023-01-13T07:58:50.637Z,88.94
2023-01-13T08:03:56.697Z,88.92
2023-01-13T08:09:00.284Z,88.84
2023-01-13T08:14:04.242Z,88.86
2023-01-13T08:19:08.150Z,88.84
2023-01-13T08:24:12.218Z,88.81
2023-01-13T08:29:15.867Z,88.79
2023-01-13T08:34:19.833Z,88.77
2023-01-13T08:39:25.957Z,88.78
2023-01-13T08:44:32.713Z,88.78
2023-01-13T08:49:36.428Z,88.86
2023-01-13T08:54:40.923Z,88.81
2023-01-13T08:59:45.334Z,88.73
2023-01-13T09:04:50.322Z,88.67
2023-01-13T09:09:54.189Z,88.61
2023-01-13T09:14:58.648Z,88.54
2023-01-13T09:20:02.505Z,88.46
2023-01-13T09:25:07.460Z,88.30
2023-01-13T09:30:11.958Z,88.19
2023-01-13T09:35:17.757Z,88.14
2023-01-13T09:40:23.077Z,88.11
2023-01-13T09:45:38.169Z,87.98
2023-01-13T09:51:17.976Z,87.83
2023-01-13T09:56:23.373Z,87.88
2023-01-13T10:01:42.356Z,87.97
2023-01-13T10:06:58.198Z,88.11
2023-01-13T10:12:22.180Z,88.32
2023-01-13T10:17:44.656Z,88.43
2023-01-13T10:23:17.007Z,88.40
2023-01-13T10:28:24.217Z,88.47
2023-01-13T10:33:29.046Z,88.39
2023-01-13T10:38:35.985Z,88.18
2023-01-13T10:43:40.249Z,88.11
2023-01-13T10:48:58.900Z,88.07
2023-01-13T10:54:25.560Z,88.03
2023-01-13T10:59:30.200Z,88.06
2023-01-13T11:04:39.978Z,88.01
2023-01-13T11:09:43.841Z,88.07
2023-01-13T11:14:49.058Z,88.11
2023-01-13T11:20:14.273Z,88.10
2023-01-13T11:25:45.968Z,88.02
2023-01-13T11:31:19.872Z,88.04
2023-01-13T11:36:33.018Z,88.00
2023-01-13T11:41:47.297Z,87.94
2023-01-13T11:46:54.230Z,87.86
2023-01-13T11:52:50.165Z,87.90
2023-01-13T11:58:19.416Z,87.93
2023-01-13T12:03:38.883Z,87.84
2023-01-13T12:09:05.432Z,87.79
2023-01-13T12:14:49.367Z,87.76
2023-01-13T12:19:53.134Z,87.75
2023-01-13T12:25:21.535Z,87.80
2023-01-13T12:30:51.167Z,87.79
2023-01-13T12:36:21.636Z,87.88
2023-01-13T12:42:05.834Z,88.01
2023-01-13T12:47:39.362Z,87.90
2023-01-13T12:52:46.300Z,87.77
2023-01-13T12:58:03.265Z,87.71
2023-01-13T13:03:12.878Z,87.75
2023-01-13T13:08:38.119Z,87.82
2023-01-13T13:13:49.440Z,87.82
2023-01-13T13:19:20.384Z,87.85
2023-01-13T13:24:25.739Z,87.78
2023-01-13T13:29:53.751Z,87.54
2023-01-13T13:35:19.880Z,87.38
2023-01-13T13:40:43.445Z,87.21
2023-01-13T13:46:11.132Z,87.18
2023-01-13T13:51:46.725Z,87.07
2023-01-13T13:56:51.732Z,87.16
2023-01-13T14:02:04.100Z,87.21
2023-01-13T14:07:21.638Z,87.37
2023-01-13T14:12:28.032Z,87.60
2023-01-13T14:17:32.021Z,87.74
2023-01-13T14:22:37.699Z,87.81
2023-01-13T14:27:47.351Z,87.90
2023-01-13T14:32:58.118Z,88.07
2023-01-13T14:38:13.627Z,88.35
2023-01-13T14:43:24.995Z,88.46
2023-01-13T14:48:36.938Z,88.57
2023-01-13T14:53:47.645Z,88.64
2023-01-13T14:58:51.314Z,88.64
2023-01-13T15:03:55.985Z,88.57
2023-01-13T15:08:59.804Z,88.46
2023-01-13T15:14:11.817Z,88.39
2023-01-13T15:19:15.604Z,88.29
2023-01-13T15:24:19.290Z,88.25
2023-01-13T15:29:24.470Z,88.29
2023-01-13T15:34:28.425Z,88.31
2023-01-13T15:39:32.327Z,88.25
2023-01-13T15:44:54.745Z,88.22
2023-01-13T15:49:58.699Z,88.20
2023-01-13T15:55:02.407Z,88.18
2023-01-13T16:00:22.072Z,88.25
2023-01-13T16:05:26.582Z,88.40
2023-01-13T16:10:30.402Z,88.49
2023-01-13T16:15:34.229Z,88.43
2023-01-13T16:20:37.945Z,88.39
2023-01-13T16:25:45.243Z,88.40
2023-01-13T16:30:49.390Z,88.40
2023-01-13T16:36:10.934Z,88.43
2023-01-13T16:41:16.608Z,88.42
2023-01-13T16:46:26.388Z,88.38
2023-01-13T16:51:30.253Z,88.29
2023-01-13T16:56:37.313Z,88.26
2023-01-13T17:01:43.823Z,88.09
2023-01-13T17:07:07.118Z,87.82
2023-01-13T17:12:12.179Z,87.59
2023-01-13T17:17:28.878Z,87.32
2023-01-13T17:22:33.126Z,86.45
2023-01-13T17:27:37.275Z,85.96
2023-01-13T17:32:42.300Z,85.97
2023-01-13T17:37:46.415Z,85.93
2023-01-13T17:42:50.280Z,85.90
2023-01-13T17:48:00.417Z,85.89
2023-01-13T17:53:04.091Z,85.93
2023-01-13T17:58:08.969Z,85.84
2023-01-13T18:03:13.145Z,85.68
2023-01-13T18:08:17.620Z,85.53
2023-01-13T18:13:21.271Z,85.57
2023-01-13T18:18:24.965Z,85.64
2023-01-13T18:23:47.442Z,85.79
2023-01-13T18:28:51.280Z,85.81
2023-01-13T18:33:55.337Z,85.78
2023-01-13T18:38:59.080Z,85.72
2023-01-13T18:44:04.301Z,85.60
2023-01-13T18:49:08.234Z,85.60
2023-01-13T18:54:12.487Z,85.52
2023-01-13T18:59:18.124Z,85.46
2023-01-13T19:04:23.893Z,85.41
2023-01-13T19:09:31.802Z,85.25
2023-01-13T19:14:38.420Z,85.17
2023-01-13T19:19:49.428Z,85.21
2023-01-13T19:24:54.350Z,85.23
2023-01-13T19:30:01.889Z,85.18
2023-01-13T19:35:08.183Z,85.04
2023-01-13T19:40:16.172Z,84.87
2023-01-13T19:45:31.709Z,84.81
2023-01-13T19:50:40.276Z,84.79
2023-01-13T19:55:48.858Z,84.74
2023-01-13T20:00:54.837Z,84.78
2023-01-13T20:06:10.613Z,84.88
2023-01-13T20:11:33.709Z,84.97
2023-01-13T20:16:37.798Z,85.12
2023-01-13T20:21:43.830Z,85.29
2023-01-13T20:26:47.814Z,85.39
2023-01-13T20:31:51.929Z,85.54
2023-01-13T20:36:56.274Z,85.64
2023-01-13T20:42:18.782Z,85.83
2023-01-13T20:47:23.571Z,85.99
2023-01-13T20:52:29.155Z,86.17
2023-01-13T20:57:33.276Z,86.31
2023-01-13T21:02:38.976Z,86.46
2023-01-13T21:07:42.902Z,86.50
2023-01-13T21:13:05.818Z,86.40
2023-01-13T21:18:28.183Z,86.25
2023-01-13T21:23:32.097Z,86.18
2023-01-13T21:28:37.238Z,86.07
2023-01-13T21:33:41.109Z,85.97
2023-01-13T21:38:44.998Z,85.88
2023-01-13T21:44:07.656Z,85.86
2023-01-13T21:49:11.884Z,85.88
2023-01-13T21:54:15.614Z,85.82
2023-01-13T21:59:20.164Z,85.78
2023-01-13T22:04:23.902Z,85.72
2023-01-13T22:09:27.636Z,85.68
2023-01-13T22:14:31.501Z,85.51
2023-01-13T22:19:39.503Z,85.43
2023-01-13T22:24:44.313Z,85.29
2023-01-13T22:29:50.084Z,85.22
2023-01-13T22:34:53.847Z,85.09
2023-01-13T22:39:57.528Z,84.95
2023-01-13T22:45:01.367Z,84.80
2023-01-13T22:50:07.863Z,84.57
2023-01-13T22:55:11.725Z,84.36
2023-01-13T23:00:19.461Z,84.21
2023-01-13T23:05:23.522Z,84.01
2023-01-13T23:10:27.329Z,83.94
2023-01-13T23:15:31.436Z,83.85
2023-01-13T23:20:35.301Z,83.72
2023-01-13T23:25:39.090Z,83.64
2023-01-13T23:30:42.720Z,83.46
2023-01-13T23:36:19.389Z,83.29
2023-01-13T23:41:26.176Z,83.09
2023-01-13T23:46:33.499Z,83.10
2023-01-13T23:51:37.443Z,83.14
2023-01-13T23:56:41.348Z,83.04
